Terminal Aerodrome Forecast
Issued by NWS

Home | Current Version | Previous Version | Text Only | Print | Product List | Glossary On
Versions: 1 2 3 4 5 6 7 8 9 10 11 12 13 14 15 16 17 18
000
FTUS44 KTSA 281410 AAA
TAFRVS
TAF AMD
KRVS 281410Z 2814/2912 36005KT P6SM BKN006
     FM281600 01005KT P6SM SCT007 BKN025
     FM281900 02008KT P6SM BKN035
     FM290100 02004KT P6SM SCT250=

USA.gov is the U.S. government's official web portal to all federal, state and local government web resources and services.